UAL2382 KSFO-KLAS
Flight info
| Callsign | UAL2382 |
|---|---|
| Flight time | 1h 9m |
| Altitude | 35000 |
| Route | WESLA5 NTELL Q174 FLCHR COKTL4 |
| Aircraft | B738/M-SDE2E3FGHIRWXY/LB1 |
Departure
| Time | 2026-05-07 17:05 |
|---|---|
| Airport | San Francisco International Airport (KSFO) |
Arrival
| Time | 2026-05-07 18:14 |
|---|---|
| Airport | Harry Reid International Airport (KLAS) |
| Time | Latitude | Longitude | Altitude | Speed | Heading |
|---|---|---|---|---|---|
| 2026-05-07 16:17 | 37.61942 | -122.38649 | 21 ft | 0 kts | 212° |
| 2026-05-07 16:45 | 37.61960 | -122.38638 | 22 ft | 4 kts | 183° |
| 2026-05-07 16:45 | 37.61980 | -122.38646 | 22 ft | 4 kts | 116° |
| 2026-05-07 16:45 | 37.61984 | -122.38659 | 21 ft | 1 kts | 96° |
| 2026-05-07 16:48 | 37.61983 | -122.38648 | 21 ft | 5 kts | 94° |
| 2026-05-07 16:48 | 37.62023 | -122.38600 | 21 ft | 11 kts | 21° |
| 2026-05-07 16:48 | 37.62086 | -122.38547 | 21 ft | 11 kts | 51° |
| 2026-05-07 16:49 | 37.62074 | -122.38460 | 22 ft | 10 kts | 117° |
| 2026-05-07 16:49 | 37.62041 | -122.38380 | 21 ft | 10 kts | 118° |
| 2026-05-07 16:49 | 37.62007 | -122.38300 | 21 ft | 11 kts | 118° |
| 2026-05-07 16:49 | 37.61970 | -122.38213 | 22 ft | 11 kts | 118° |
| 2026-05-07 16:50 | 37.61934 | -122.38127 | 21 ft | 11 kts | 118° |
| 2026-05-07 16:50 | 37.61898 | -122.38041 | 22 ft | 11 kts | 118° |
| 2026-05-07 16:50 | 37.61862 | -122.37956 | 21 ft | 11 kts | 118° |
| 2026-05-07 16:50 | 37.61826 | -122.37860 | 21 ft | 13 kts | 113° |
| 2026-05-07 16:51 | 37.61794 | -122.37754 | 21 ft | 13 kts | 111° |
| 2026-05-07 16:51 | 37.61762 | -122.37652 | 21 ft | 13 kts | 111° |
| 2026-05-07 16:51 | 37.61731 | -122.37551 | 21 ft | 12 kts | 111° |
| 2026-05-07 16:51 | 37.61695 | -122.37455 | 21 ft | 12 kts | 117° |
| 2026-05-07 16:52 | 37.61658 | -122.37364 | 21 ft | 12 kts | 117° |
| 2026-05-07 16:52 | 37.61621 | -122.37276 | 21 ft | 11 kts | 117° |
| 2026-05-07 16:52 | 37.61585 | -122.37189 | 21 ft | 11 kts | 118° |
| 2026-05-07 16:52 | 37.61550 | -122.37106 | 21 ft | 11 kts | 117° |
| 2026-05-07 16:53 | 37.61516 | -122.37024 | 21 ft | 10 kts | 117° |
| 2026-05-07 16:53 | 37.61483 | -122.36945 | 21 ft | 10 kts | 117° |
| 2026-05-07 16:53 | 37.61443 | -122.36878 | 22 ft | 10 kts | 148° |
| 2026-05-07 16:53 | 37.61393 | -122.36822 | 21 ft | 10 kts | 132° |
| 2026-05-07 16:54 | 37.61354 | -122.36756 | 21 ft | 9 kts | 124° |
| 2026-05-07 16:54 | 37.61325 | -122.36684 | 22 ft | 9 kts | 115° |
| 2026-05-07 16:54 | 37.61296 | -122.36615 | 21 ft | 9 kts | 117° |
| 2026-05-07 16:54 | 37.61268 | -122.36547 | 22 ft | 9 kts | 118° |
| 2026-05-07 16:55 | 37.61241 | -122.36482 | 21 ft | 8 kts | 118° |
| 2026-05-07 16:55 | 37.61211 | -122.36412 | 21 ft | 10 kts | 118° |
| 2026-05-07 16:55 | 37.61175 | -122.36328 | 23 ft | 11 kts | 118° |
| 2026-05-07 16:55 | 37.61138 | -122.36241 | 21 ft | 11 kts | 117° |
| 2026-05-07 16:56 | 37.61103 | -122.36155 | 23 ft | 11 kts | 118° |
| 2026-05-07 16:56 | 37.61067 | -122.36073 | 21 ft | 11 kts | 118° |
| 2026-05-07 16:56 | 37.61053 | -122.35969 | 21 ft | 0 kts | 73° |
| 2026-05-07 16:57 | 37.61054 | -122.35964 | 21 ft | 2 kts | 73° |
| 2026-05-07 16:57 | 37.61069 | -122.35931 | 22 ft | 0 kts | 48° |
| 2026-05-07 17:01 | 37.61077 | -122.35921 | 21 ft | 6 kts | 43° |
| 2026-05-07 17:01 | 37.61125 | -122.35886 | 23 ft | 9 kts | 24° |
| 2026-05-07 17:02 | 37.61183 | -122.35881 | 21 ft | 9 kts | 330° |
| 2026-05-07 17:02 | 37.61202 | -122.35914 | 21 ft | 0 kts | 299° |
| 2026-05-07 17:04 | 37.61246 | -122.36017 | 22 ft | 44 kts | 298° |
| 2026-05-07 17:05 | 37.61508 | -122.36643 | 21 ft | 115 kts | 297° |
| 2026-05-07 17:05 | 37.61966 | -122.37756 | 105 ft | 163 kts | 295° |
| 2026-05-07 17:05 | 37.62462 | -122.39033 | 912 ft | 163 kts | 297° |
| 2026-05-07 17:05 | 37.63023 | -122.40340 | 1551 ft | 181 kts | 299° |
| 2026-05-07 17:06 | 37.63693 | -122.41854 | 1871 ft | 210 kts | 298° |
| 2026-05-07 17:06 | 37.64422 | -122.43493 | 2472 ft | 219 kts | 300° |
| 2026-05-07 17:06 | 37.65174 | -122.45186 | 3161 ft | 225 kts | 300° |
| 2026-05-07 17:06 | 37.65958 | -122.46956 | 3820 ft | 238 kts | 299° |
| 2026-05-07 17:07 | 37.66735 | -122.48832 | 4571 ft | 247 kts | 289° |
| 2026-05-07 17:07 | 37.66836 | -122.51041 | 5096 ft | 262 kts | 254° |
| 2026-05-07 17:07 | 37.65944 | -122.53048 | 5891 ft | 267 kts | 225° |
| 2026-05-07 17:07 | 37.64384 | -122.54289 | 6790 ft | 269 kts | 198° |
| 2026-05-07 17:08 | 37.62508 | -122.54442 | 7588 ft | 276 kts | 171° |
| 2026-05-07 17:08 | 37.60659 | -122.53704 | 8383 ft | 282 kts | 159° |
| 2026-05-07 17:08 | 37.58843 | -122.52707 | 9164 ft | 287 kts | 157° |
| 2026-05-07 17:08 | 37.57006 | -122.51674 | 9922 ft | 287 kts | 158° |
| 2026-05-07 17:09 | 37.55154 | -122.50669 | 10624 ft | 293 kts | 158° |
| 2026-05-07 17:09 | 37.53255 | -122.49670 | 11351 ft | 297 kts | 159° |
| 2026-05-07 17:09 | 37.51360 | -122.48688 | 12104 ft | 300 kts | 159° |
| 2026-05-07 17:09 | 37.49422 | -122.47591 | 12845 ft | 305 kts | 148° |
| 2026-05-07 17:10 | 37.47916 | -122.45742 | 13557 ft | 310 kts | 128° |
| 2026-05-07 17:10 | 37.46631 | -122.43502 | 14277 ft | 314 kts | 126° |
| 2026-05-07 17:10 | 37.45378 | -122.41266 | 14899 ft | 319 kts | 126° |
| 2026-05-07 17:10 | 37.44083 | -122.38980 | 15545 ft | 324 kts | 126° |
| 2026-05-07 17:11 | 37.42764 | -122.36673 | 16281 ft | 324 kts | 126° |
| 2026-05-07 17:11 | 37.41453 | -122.34352 | 16960 ft | 328 kts | 121° |
| 2026-05-07 17:11 | 37.40609 | -122.31677 | 17525 ft | 333 kts | 103° |
| 2026-05-07 17:11 | 37.40052 | -122.28837 | 18205 ft | 336 kts | 102° |
| 2026-05-07 17:12 | 37.39507 | -122.25962 | 18815 ft | 340 kts | 102° |
| 2026-05-07 17:12 | 37.38958 | -122.23062 | 19410 ft | 342 kts | 102° |
| 2026-05-07 17:12 | 37.38401 | -122.20154 | 20016 ft | 344 kts | 103° |
| 2026-05-07 17:12 | 37.37831 | -122.17214 | 20625 ft | 346 kts | 103° |
| 2026-05-07 17:13 | 37.37253 | -122.14262 | 21187 ft | 350 kts | 103° |
| 2026-05-07 17:13 | 37.36665 | -122.11280 | 21762 ft | 353 kts | 103° |
| 2026-05-07 17:13 | 37.36070 | -122.08280 | 22345 ft | 355 kts | 103° |
| 2026-05-07 17:13 | 37.35467 | -122.05255 | 22937 ft | 358 kts | 103° |
| 2026-05-07 17:14 | 37.34860 | -122.02215 | 23520 ft | 360 kts | 103° |
| 2026-05-07 17:14 | 37.34247 | -121.99154 | 24015 ft | 363 kts | 103° |
| 2026-05-07 17:14 | 37.33628 | -121.96066 | 24474 ft | 366 kts | 103° |
| 2026-05-07 17:14 | 37.33004 | -121.92959 | 24943 ft | 368 kts | 103° |
| 2026-05-07 17:15 | 37.32374 | -121.89831 | 25405 ft | 370 kts | 103° |
| 2026-05-07 17:15 | 37.31740 | -121.86684 | 25860 ft | 373 kts | 103° |
| 2026-05-07 17:15 | 37.31101 | -121.83522 | 26310 ft | 375 kts | 103° |
| 2026-05-07 17:15 | 37.30456 | -121.80331 | 26753 ft | 378 kts | 103° |
| 2026-05-07 17:16 | 37.29807 | -121.77135 | 27276 ft | 378 kts | 103° |
| 2026-05-07 17:16 | 37.29155 | -121.73934 | 27744 ft | 379 kts | 104° |
| 2026-05-07 17:16 | 37.28504 | -121.70713 | 28128 ft | 383 kts | 103° |
| 2026-05-07 17:16 | 37.27846 | -121.67460 | 28509 ft | 386 kts | 104° |
| 2026-05-07 17:17 | 37.27180 | -121.64189 | 28950 ft | 387 kts | 104° |
| 2026-05-07 17:17 | 37.26519 | -121.60951 | 29358 ft | 389 kts | 104° |
| 2026-05-07 17:17 | 37.25844 | -121.57650 | 29740 ft | 392 kts | 104° |
| 2026-05-07 17:17 | 37.25162 | -121.54322 | 30108 ft | 395 kts | 104° |
| 2026-05-07 17:18 | 37.24475 | -121.50976 | 30426 ft | 397 kts | 104° |
| 2026-05-07 17:18 | 37.23781 | -121.47622 | 30807 ft | 398 kts | 104° |
| 2026-05-07 17:18 | 37.23088 | -121.44250 | 31125 ft | 400 kts | 103° |
| 2026-05-07 17:18 | 37.22394 | -121.40861 | 31411 ft | 403 kts | 104° |
| 2026-05-07 17:19 | 37.21691 | -121.37444 | 31691 ft | 406 kts | 104° |
| 2026-05-07 17:19 | 37.20983 | -121.34004 | 31961 ft | 409 kts | 104° |
| 2026-05-07 17:19 | 37.20269 | -121.30549 | 32257 ft | 410 kts | 104° |
| 2026-05-07 17:19 | 37.19549 | -121.27075 | 32552 ft | 412 kts | 103° |
| 2026-05-07 17:20 | 37.18825 | -121.23590 | 32838 ft | 414 kts | 104° |
| 2026-05-07 17:20 | 37.18092 | -121.20079 | 33179 ft | 414 kts | 104° |
| 2026-05-07 17:20 | 37.17366 | -121.16575 | 33421 ft | 417 kts | 103° |
| 2026-05-07 17:20 | 37.16631 | -121.13046 | 33647 ft | 420 kts | 103° |
| 2026-05-07 17:21 | 37.15890 | -121.09501 | 33905 ft | 422 kts | 104° |
| 2026-05-07 17:21 | 37.15153 | -121.05986 | 34161 ft | 423 kts | 104° |
| 2026-05-07 17:21 | 37.14394 | -121.02369 | 34365 ft | 425 kts | 103° |
| 2026-05-07 17:21 | 37.13639 | -120.98775 | 34574 ft | 427 kts | 103° |
| 2026-05-07 17:22 | 37.12891 | -120.95217 | 34769 ft | 429 kts | 104° |
| 2026-05-07 17:22 | 37.12131 | -120.91605 | 35062 ft | 428 kts | 103° |
| 2026-05-07 17:22 | 37.10593 | -120.84324 | 35139 ft | 438 kts | 104° |
| 2026-05-07 17:23 | 37.09014 | -120.76868 | 35148 ft | 448 kts | 103° |
| 2026-05-07 17:23 | 37.07393 | -120.69243 | 35149 ft | 458 kts | 104° |
| 2026-05-07 17:24 | 37.05734 | -120.61463 | 35143 ft | 466 kts | 104° |
| 2026-05-07 17:24 | 37.04052 | -120.53608 | 35129 ft | 468 kts | 104° |
| 2026-05-07 17:25 | 37.02363 | -120.45746 | 35135 ft | 468 kts | 104° |
| 2026-05-07 17:25 | 37.00670 | -120.37893 | 35151 ft | 467 kts | 104° |
| 2026-05-07 17:26 | 36.98976 | -120.30070 | 35137 ft | 465 kts | 104° |
| 2026-05-07 17:26 | 36.97284 | -120.22268 | 35145 ft | 464 kts | 104° |
| 2026-05-07 17:27 | 36.95592 | -120.14497 | 35148 ft | 463 kts | 104° |
| 2026-05-07 17:27 | 36.93898 | -120.06743 | 35151 ft | 462 kts | 104° |
| 2026-05-07 17:28 | 36.92203 | -119.99008 | 35136 ft | 461 kts | 104° |
| 2026-05-07 17:28 | 36.90616 | -119.91263 | 35116 ft | 459 kts | 94° |
| 2026-05-07 17:29 | 36.90575 | -119.88637 | 35145 ft | 455 kts | 83° |
| 2026-05-07 17:29 | 36.91588 | -119.83651 | 35148 ft | 451 kts | 67° |
| 2026-05-07 17:29 | 36.94013 | -119.76409 | 35140 ft | 452 kts | 66° |
| 2026-05-07 17:30 | 36.96070 | -119.70349 | 35129 ft | 452 kts | 66° |
| 2026-05-07 17:30 | 36.98482 | -119.63080 | 35131 ft | 453 kts | 67° |
| 2026-05-07 17:31 | 37.00803 | -119.55970 | 35123 ft | 454 kts | 67° |
| 2026-05-07 17:31 | 37.03176 | -119.48643 | 35120 ft | 454 kts | 67° |
| 2026-05-07 17:32 | 37.05552 | -119.41298 | 35123 ft | 455 kts | 66° |
| 2026-05-07 17:32 | 37.07929 | -119.33943 | 35116 ft | 456 kts | 67° |
| 2026-05-07 17:33 | 37.10307 | -119.26568 | 35120 ft | 457 kts | 67° |
| 2026-05-07 17:33 | 37.12682 | -119.19181 | 35131 ft | 457 kts | 67° |
| 2026-05-07 17:34 | 37.15048 | -119.11800 | 35133 ft | 457 kts | 67° |
| 2026-05-07 17:34 | 37.17411 | -119.04406 | 35134 ft | 456 kts | 67° |
| 2026-05-07 17:35 | 37.19766 | -118.97024 | 35139 ft | 456 kts | 67° |
| 2026-05-07 17:35 | 37.22116 | -118.89636 | 35142 ft | 456 kts | 67° |
| 2026-05-07 17:36 | 37.24445 | -118.82293 | 35128 ft | 455 kts | 67° |
| 2026-05-07 17:36 | 37.26780 | -118.74915 | 35133 ft | 455 kts | 68° |
| 2026-05-07 17:37 | 37.28200 | -118.67181 | 35148 ft | 457 kts | 83° |
| 2026-05-07 17:37 | 37.28757 | -118.59222 | 35155 ft | 457 kts | 83° |
| 2026-05-07 17:38 | 37.29305 | -118.51265 | 35165 ft | 457 kts | 83° |
| 2026-05-07 17:38 | 37.29888 | -118.43314 | 35178 ft | 457 kts | 83° |
| 2026-05-07 17:39 | 37.30483 | -118.35367 | 35179 ft | 457 kts | 83° |
| 2026-05-07 17:39 | 37.31074 | -118.27425 | 35172 ft | 456 kts | 83° |
| 2026-05-07 17:40 | 37.31659 | -118.19490 | 35156 ft | 456 kts | 83° |
| 2026-05-07 17:40 | 37.32236 | -118.11562 | 35050 ft | 456 kts | 83° |
| 2026-05-07 17:41 | 37.32808 | -118.03635 | 35052 ft | 455 kts | 82° |
| 2026-05-07 17:41 | 37.33374 | -117.95716 | 35046 ft | 455 kts | 83° |
| 2026-05-07 17:42 | 37.33935 | -117.87798 | 35047 ft | 455 kts | 83° |
| 2026-05-07 17:42 | 37.34491 | -117.79874 | 35054 ft | 455 kts | 83° |
| 2026-05-07 17:43 | 37.35038 | -117.72008 | 35047 ft | 455 kts | 83° |
| 2026-05-07 17:43 | 37.35584 | -117.64084 | 35051 ft | 455 kts | 83° |
| 2026-05-07 17:44 | 37.36125 | -117.56140 | 34793 ft | 460 kts | 83° |
| 2026-05-07 17:44 | 37.36399 | -117.52113 | 34199 ft | 462 kts | 83° |
| 2026-05-07 17:44 | 37.36669 | -117.48097 | 33484 ft | 462 kts | 83° |
| 2026-05-07 17:45 | 37.36938 | -117.44069 | 32771 ft | 462 kts | 83° |
| 2026-05-07 17:45 | 37.37207 | -117.40043 | 32044 ft | 463 kts | 83° |
| 2026-05-07 17:45 | 37.37475 | -117.36009 | 31432 ft | 461 kts | 83° |
| 2026-05-07 17:45 | 37.37724 | -117.32053 | 31316 ft | 449 kts | 85° |
| 2026-05-07 17:46 | 37.37454 | -117.28180 | 31077 ft | 443 kts | 102° |
| 2026-05-07 17:46 | 37.36377 | -117.24581 | 30898 ft | 444 kts | 115° |
| 2026-05-07 17:46 | 37.34613 | -117.21314 | 30667 ft | 461 kts | 128° |
| 2026-05-07 17:46 | 37.32444 | -117.18266 | 30411 ft | 475 kts | 130° |
| 2026-05-07 17:47 | 37.30166 | -117.15189 | 30150 ft | 486 kts | 131° |
| 2026-05-07 17:47 | 37.27864 | -117.12092 | 29826 ft | 483 kts | 130° |
| 2026-05-07 17:47 | 37.25600 | -117.09016 | 29525 ft | 476 kts | 130° |
| 2026-05-07 17:47 | 37.23384 | -117.05967 | 29262 ft | 470 kts | 130° |
| 2026-05-07 17:48 | 37.21193 | -117.02925 | 29002 ft | 470 kts | 130° |
| 2026-05-07 17:48 | 37.19006 | -116.99877 | 28767 ft | 470 kts | 129° |
| 2026-05-07 17:48 | 37.16820 | -116.96830 | 28493 ft | 469 kts | 130° |
| 2026-05-07 17:48 | 37.14636 | -116.93791 | 28229 ft | 468 kts | 130° |
| 2026-05-07 17:49 | 37.12457 | -116.90767 | 27975 ft | 467 kts | 130° |
| 2026-05-07 17:49 | 37.10269 | -116.87765 | 27711 ft | 466 kts | 132° |
| 2026-05-07 17:49 | 37.07787 | -116.85150 | 27456 ft | 467 kts | 143° |
| 2026-05-07 17:49 | 37.05105 | -116.82860 | 27221 ft | 466 kts | 144° |
| 2026-05-07 17:50 | 37.02397 | -116.80649 | 26962 ft | 464 kts | 145° |
| 2026-05-07 17:50 | 36.99697 | -116.78450 | 26700 ft | 462 kts | 145° |
| 2026-05-07 17:50 | 36.97020 | -116.76236 | 26448 ft | 460 kts | 144° |
| 2026-05-07 17:50 | 36.94370 | -116.74010 | 26190 ft | 458 kts | 144° |
| 2026-05-07 17:51 | 36.91740 | -116.71776 | 25943 ft | 456 kts | 144° |
| 2026-05-07 17:51 | 36.89140 | -116.69555 | 25689 ft | 454 kts | 144° |
| 2026-05-07 17:51 | 36.86535 | -116.67327 | 25443 ft | 452 kts | 143° |
| 2026-05-07 17:51 | 36.83947 | -116.65114 | 25223 ft | 450 kts | 143° |
| 2026-05-07 17:52 | 36.81365 | -116.62909 | 24940 ft | 449 kts | 143° |
| 2026-05-07 17:52 | 36.78795 | -116.60718 | 24700 ft | 447 kts | 144° |
| 2026-05-07 17:52 | 36.76230 | -116.58533 | 24273 ft | 450 kts | 144° |
| 2026-05-07 17:52 | 36.73603 | -116.56297 | 24128 ft | 463 kts | 144° |
| 2026-05-07 17:53 | 36.70917 | -116.54013 | 24017 ft | 468 kts | 144° |
| 2026-05-07 17:53 | 36.68249 | -116.51750 | 23683 ft | 458 kts | 144° |
| 2026-05-07 17:53 | 36.65649 | -116.49537 | 23409 ft | 447 kts | 142° |
| 2026-05-07 17:53 | 36.63371 | -116.47017 | 23121 ft | 433 kts | 130° |
| 2026-05-07 17:54 | 36.61421 | -116.44225 | 22892 ft | 423 kts | 128° |
| 2026-05-07 17:54 | 36.59532 | -116.41425 | 22661 ft | 423 kts | 128° |
| 2026-05-07 17:54 | 36.57628 | -116.38617 | 22434 ft | 427 kts | 128° |
| 2026-05-07 17:54 | 36.55718 | -116.35848 | 22197 ft | 427 kts | 128° |
| 2026-05-07 17:55 | 36.53773 | -116.33074 | 21960 ft | 424 kts | 129° |
| 2026-05-07 17:55 | 36.51833 | -116.30334 | 21729 ft | 421 kts | 129° |
| 2026-05-07 17:55 | 36.49900 | -116.27608 | 21495 ft | 419 kts | 129° |
| 2026-05-07 17:55 | 36.47984 | -116.24913 | 21274 ft | 412 kts | 129° |
| 2026-05-07 17:56 | 36.46110 | -116.22279 | 21039 ft | 402 kts | 129° |
| 2026-05-07 17:56 | 36.44275 | -116.19702 | 20750 ft | 395 kts | 129° |
| 2026-05-07 17:56 | 36.42467 | -116.17165 | 20434 ft | 389 kts | 129° |
| 2026-05-07 17:56 | 36.40681 | -116.14658 | 20129 ft | 386 kts | 129° |
| 2026-05-07 17:57 | 36.38911 | -116.12174 | 19841 ft | 383 kts | 129° |
| 2026-05-07 17:57 | 36.37722 | -116.10507 | 19622 ft | 381 kts | 129° |
| 2026-05-07 17:57 | 36.35394 | -116.07245 | 19245 ft | 382 kts | 129° |
| 2026-05-07 17:57 | 36.33629 | -116.04769 | 18949 ft | 384 kts | 128° |
| 2026-05-07 17:58 | 36.31896 | -116.02254 | 18590 ft | 383 kts | 129° |
| 2026-05-07 17:58 | 36.30123 | -115.99815 | 18317 ft | 378 kts | 129° |
| 2026-05-07 17:58 | 36.28375 | -115.97411 | 17982 ft | 373 kts | 129° |
| 2026-05-07 17:58 | 36.26671 | -115.95050 | 17651 ft | 361 kts | 129° |
| 2026-05-07 17:59 | 36.25034 | -115.92767 | 17350 ft | 348 kts | 128° |
| 2026-05-07 17:59 | 36.23531 | -115.90488 | 17038 ft | 338 kts | 125° |
| 2026-05-07 17:59 | 36.22110 | -115.88211 | 16772 ft | 331 kts | 124° |
| 2026-05-07 17:59 | 36.20716 | -115.85955 | 16493 ft | 329 kts | 124° |
| 2026-05-07 18:00 | 36.19329 | -115.83728 | 16235 ft | 325 kts | 125° |
| 2026-05-07 18:00 | 36.17944 | -115.81524 | 15976 ft | 322 kts | 125° |
| 2026-05-07 18:00 | 36.16574 | -115.79347 | 15712 ft | 319 kts | 126° |
| 2026-05-07 18:00 | 36.15209 | -115.77187 | 15486 ft | 316 kts | 126° |
| 2026-05-07 18:01 | 36.13874 | -115.75081 | 15501 ft | 309 kts | 126° |
| 2026-05-07 18:01 | 36.12540 | -115.72974 | 15519 ft | 315 kts | 126° |
| 2026-05-07 18:01 | 36.11228 | -115.70779 | 15518 ft | 318 kts | 117° |
| 2026-05-07 18:01 | 36.10410 | -115.68283 | 15378 ft | 310 kts | 104° |
| 2026-05-07 18:02 | 36.09229 | -115.63189 | 14361 ft | 310 kts | 104° |
| 2026-05-07 18:02 | 36.08610 | -115.60635 | 13819 ft | 310 kts | 105° |
| 2026-05-07 18:02 | 36.07973 | -115.58107 | 13322 ft | 307 kts | 105° |
| 2026-05-07 18:03 | 36.07329 | -115.55617 | 13004 ft | 300 kts | 105° |
| 2026-05-07 18:03 | 36.06700 | -115.53221 | 12779 ft | 296 kts | 106° |
| 2026-05-07 18:03 | 36.06056 | -115.50780 | 12608 ft | 302 kts | 106° |
| 2026-05-07 18:03 | 36.05385 | -115.48250 | 12430 ft | 308 kts | 106° |
| 2026-05-07 18:04 | 36.04714 | -115.45732 | 12214 ft | 310 kts | 106° |
| 2026-05-07 18:04 | 36.04041 | -115.43208 | 11972 ft | 307 kts | 106° |
| 2026-05-07 18:04 | 36.03323 | -115.40727 | 11651 ft | 306 kts | 109° |
| 2026-05-07 18:04 | 36.02564 | -115.38324 | 11351 ft | 304 kts | 109° |
| 2026-05-07 18:05 | 36.01788 | -115.35867 | 11041 ft | 302 kts | 107° |
| 2026-05-07 18:05 | 36.01415 | -115.33389 | 10823 ft | 294 kts | 91° |
| 2026-05-07 18:05 | 36.01329 | -115.30932 | 10661 ft | 292 kts | 90° |
| 2026-05-07 18:05 | 36.01237 | -115.28420 | 10460 ft | 293 kts | 91° |
| 2026-05-07 18:06 | 36.01135 | -115.25909 | 10256 ft | 292 kts | 91° |
| 2026-05-07 18:06 | 36.01025 | -115.23426 | 10050 ft | 287 kts | 91° |
| 2026-05-07 18:06 | 36.00910 | -115.20981 | 9839 ft | 283 kts | 91° |
| 2026-05-07 18:06 | 36.00793 | -115.18571 | 9632 ft | 279 kts | 91° |
| 2026-05-07 18:07 | 36.00675 | -115.16198 | 9433 ft | 274 kts | 91° |
| 2026-05-07 18:07 | 36.00557 | -115.13868 | 9251 ft | 270 kts | 92° |
| 2026-05-07 18:07 | 36.00441 | -115.11592 | 9055 ft | 266 kts | 92° |
| 2026-05-07 18:07 | 36.00329 | -115.09330 | 8832 ft | 263 kts | 92° |
| 2026-05-07 18:08 | 36.00217 | -115.07084 | 8602 ft | 261 kts | 92° |
| 2026-05-07 18:08 | 36.00102 | -115.04854 | 8373 ft | 259 kts | 92° |
| 2026-05-07 18:08 | 35.99985 | -115.02636 | 8134 ft | 258 kts | 91° |
| 2026-05-07 18:08 | 35.99877 | -115.00425 | 7877 ft | 255 kts | 91° |
| 2026-05-07 18:09 | 35.99803 | -114.98318 | 7904 ft | 241 kts | 90° |
| 2026-05-07 18:09 | 35.99739 | -114.96260 | 7938 ft | 239 kts | 90° |
| 2026-05-07 18:09 | 35.99677 | -114.94241 | 7978 ft | 231 kts | 89° |
| 2026-05-07 18:09 | 35.99919 | -114.92348 | 7766 ft | 223 kts | 59° |
| 2026-05-07 18:10 | 36.00967 | -114.91003 | 7431 ft | 218 kts | 28° |
| 2026-05-07 18:10 | 36.02380 | -114.90359 | 7003 ft | 217 kts | 14° |
| 2026-05-07 18:10 | 36.03870 | -114.90054 | 6515 ft | 220 kts | 356° |
| 2026-05-07 18:10 | 36.05311 | -114.90653 | 6098 ft | 220 kts | 333° |
| 2026-05-07 18:11 | 36.06566 | -114.91646 | 5689 ft | 219 kts | 317° |
| 2026-05-07 18:11 | 36.07125 | -114.92668 | 5377 ft | 222 kts | 290° |
| 2026-05-07 18:11 | 36.07352 | -114.95196 | 4821 ft | 222 kts | 275° |
| 2026-05-07 18:11 | 36.07411 | -114.97083 | 4514 ft | 218 kts | 270° |
| 2026-05-07 18:12 | 36.07396 | -114.98955 | 4203 ft | 217 kts | 270° |
| 2026-05-07 18:12 | 36.07386 | -115.00798 | 3932 ft | 214 kts | 271° |
| 2026-05-07 18:12 | 36.07381 | -115.02609 | 3652 ft | 207 kts | 271° |
| 2026-05-07 18:12 | 36.07377 | -115.04331 | 3418 ft | 194 kts | 271° |
| 2026-05-07 18:13 | 36.07374 | -115.05925 | 3178 ft | 180 kts | 271° |
| 2026-05-07 18:13 | 36.07373 | -115.07392 | 2954 ft | 167 kts | 270° |
| 2026-05-07 18:13 | 36.07367 | -115.08820 | 2728 ft | 168 kts | 270° |
| 2026-05-07 18:13 | 36.07366 | -115.10264 | 2477 ft | 169 kts | 271° |
| 2026-05-07 18:14 | 36.07362 | -115.11697 | 2248 ft | 165 kts | 270° |
| 2026-05-07 18:14 | 36.07366 | -115.13118 | 2075 ft | 160 kts | 272° |
| 2026-05-07 18:14 | 36.07367 | -115.14315 | 2088 ft | 110 kts | 270° |
| 2026-05-07 18:14 | 36.07367 | -115.14996 | 2096 ft | 49 kts | 270° |
| 2026-05-07 18:15 | 36.07389 | -115.15309 | 2104 ft | 33 kts | 288° |
| 2026-05-07 18:15 | 36.07482 | -115.15533 | 2106 ft | 26 kts | 301° |
| 2026-05-07 18:15 | 36.07577 | -115.15670 | 2116 ft | 19 kts | 315° |
| 2026-05-07 18:15 | 36.07667 | -115.15781 | 2120 ft | 18 kts | 315° |
| 2026-05-07 18:16 | 36.07785 | -115.15826 | 2112 ft | 20 kts | 1° |
| 2026-05-07 18:16 | 36.07873 | -115.15782 | 2109 ft | 14 kts | 64° |
| 2026-05-07 18:16 | 36.07878 | -115.15652 | 2103 ft | 16 kts | 90° |
| 2026-05-07 18:16 | 36.07878 | -115.15559 | 2100 ft | 17 kts | 90° |
| 2026-05-07 18:17 | 36.07878 | -115.15419 | 2099 ft | 16 kts | 90° |
| 2026-05-07 18:17 | 36.07878 | -115.15282 | 2098 ft | 16 kts | 90° |
| 2026-05-07 18:17 | 36.07878 | -115.15151 | 2098 ft | 15 kts | 92° |
| 2026-05-07 18:17 | 36.07871 | -115.14988 | 2097 ft | 14 kts | 94° |
| 2026-05-07 18:18 | 36.07867 | -115.14919 | 2097 ft | 9 kts | 94° |
| 2026-05-07 18:18 | 36.07863 | -115.14846 | 2097 ft | 7 kts | 94° |
| 2026-05-07 18:18 | 36.07859 | -115.14785 | 2096 ft | 7 kts | 94° |
| 2026-05-07 18:18 | 36.07855 | -115.14726 | 2096 ft | 7 kts | 96° |
| 2026-05-07 18:19 | 36.07848 | -115.14655 | 2096 ft | 10 kts | 96° |
| 2026-05-07 18:19 | 36.07842 | -115.14566 | 2095 ft | 10 kts | 95° |
| 2026-05-07 18:19 | 36.07866 | -115.14490 | 2095 ft | 10 kts | 26° |
| 2026-05-07 18:19 | 36.07935 | -115.14484 | 2095 ft | 10 kts | 0° |
| 2026-05-07 18:20 | 36.08003 | -115.14484 | 2096 ft | 10 kts | 360° |
| 2026-05-07 18:20 | 36.08037 | -115.14493 | 2096 ft | 5 kts | 324° |
| 2026-05-07 18:20 | 36.08049 | -115.14534 | 2096 ft | 4 kts | 273° |
| 2026-05-07 18:20 | 36.08050 | -115.14559 | 2096 ft | 2 kts | 271° |
| 2026-05-07 18:21 | 36.08050 | -115.14565 | 2096 ft | 0 kts | 271° |